Bricelyn, Minnesota
Current Conditions -  °F | °C
As of 6:14 AM on Sunday 25 Jan 2015 (Local Time) from KAEL Reporting Station
Light Snow Light Snow  
Wind Chill: 19°   Ceiling: 900
Heat Index: 30°   Visibility: 2.5mi
Dew Point: 30°   Wind: 15mph
Humidity: 100%   Direction: 30°NNE
Pressure: 29.78"   Gusts: 23mph
Location:  43.56°N, 93.81°W
Report Text: KAEL 251214Z AUTO 03013G20KT 2 1/2SM -SN OVC009 M01/M01 A2978 RMK AO2
Loading
Personal Weather Stations






























Interactive Weather Map New forecast layout! Learn more

10-Day Weather Forecast

Advertisements
Track Severe Weather on mobile